createdAt,value
2023-04-08T00:00:55.981Z,7.10
2023-04-08T00:03:22.652Z,7.14
2023-04-08T00:05:49.278Z,7.14
2023-04-08T00:08:15.932Z,7.08
2023-04-08T00:10:42.481Z,7.04
2023-04-08T00:13:09.052Z,6.98
2023-04-08T00:15:37.191Z,6.94
2023-04-08T00:18:04.026Z,6.87
2023-04-08T00:20:30.661Z,6.78
2023-04-08T00:22:57.201Z,6.75
2023-04-08T00:25:25.375Z,6.71
2023-04-08T00:27:52.403Z,6.66
2023-04-08T00:30:19.486Z,6.59
2023-04-08T00:32:46.353Z,6.52
2023-04-08T00:35:12.998Z,6.46
2023-04-08T00:37:39.539Z,6.40
2023-04-08T00:40:06.684Z,6.35
2023-04-08T00:42:33.312Z,6.33
2023-04-08T00:44:59.855Z,6.31
2023-04-08T00:47:26.608Z,6.27
2023-04-08T00:49:53.356Z,6.24
2023-04-08T00:52:19.899Z,6.19
2023-04-08T00:54:46.649Z,6.16
2023-04-08T00:57:13.363Z,6.13
2023-04-08T00:59:41.023Z,6.12
2023-04-08T01:02:16.693Z,6.08
2023-04-08T01:04:43.345Z,6.07
2023-04-08T01:07:45.356Z,6.00
2023-04-08T01:10:19.948Z,6.00
2023-04-08T01:12:56.153Z,5.96
2023-04-08T01:15:24.682Z,5.94
2023-04-08T01:17:54.688Z,5.89
2023-04-08T01:20:22.611Z,5.86
2023-04-08T01:23:01.335Z,5.79
2023-04-08T01:25:32.840Z,5.77
2023-04-08T01:28:01.940Z,5.74
2023-04-08T01:30:30.666Z,5.71
2023-04-08T01:32:58.446Z,5.68
2023-04-08T01:35:25.447Z,5.64
2023-04-08T01:37:53.678Z,5.61
2023-04-08T01:40:20.513Z,5.62
2023-04-08T01:42:52.930Z,5.58
2023-04-08T01:45:20.733Z,5.53
2023-04-08T01:47:49.388Z,5.49
2023-04-08T01:50:16.928Z,5.45
2023-04-08T01:52:45.199Z,5.42
2023-04-08T01:55:12.213Z,5.39
2023-04-08T01:57:40.926Z,5.38
2023-04-08T02:00:13.522Z,5.34
2023-04-08T02:02:43.360Z,5.29
2023-04-08T02:05:10.083Z,5.26
2023-04-08T02:07:36.709Z,5.24
2023-04-08T02:10:04.228Z,5.23
2023-04-08T02:12:31.324Z,5.23
2023-04-08T02:14:57.987Z,5.23
2023-04-08T02:17:49.978Z,5.17
2023-04-08T02:20:19.315Z,5.23
2023-04-08T02:23:23.040Z,5.22
2023-04-08T02:25:50.644Z,5.23
2023-04-08T02:28:19.738Z,5.21
2023-04-08T02:30:51.391Z,5.20
2023-04-08T02:33:22.806Z,5.20
2023-04-08T02:35:51.631Z,5.22
2023-04-08T02:38:18.376Z,5.23
2023-04-08T02:40:44.893Z,5.22
2023-04-08T02:43:11.435Z,5.22
2023-04-08T02:45:42.915Z,5.19
2023-04-08T02:48:10.272Z,5.18
2023-04-08T02:50:37.110Z,5.15
2023-04-08T02:53:04.193Z,5.13
2023-04-08T02:55:31.003Z,5.12
2023-04-08T02:57:57.553Z,5.09
2023-04-08T03:00:24.106Z,5.09
2023-04-08T03:02:50.844Z,5.09
2023-04-08T03:05:17.691Z,5.08
2023-04-08T03:07:44.331Z,5.07
2023-04-08T03:10:11.165Z,5.08
2023-04-08T03:12:37.801Z,5.05
2023-04-08T03:15:04.649Z,5.01
2023-04-08T03:17:33.947Z,4.96
2023-04-08T03:20:05.190Z,4.94
2023-04-08T03:22:31.949Z,4.92
2023-04-08T03:24:58.560Z,4.92
2023-04-08T03:27:25.537Z,4.92
2023-04-08T03:29:53.150Z,4.89
2023-04-08T03:32:20.076Z,4.85
2023-04-08T03:34:46.673Z,4.85
2023-04-08T03:37:13.244Z,4.85
2023-04-08T03:39:39.782Z,4.83
2023-04-08T03:42:06.345Z,4.82
2023-04-08T03:44:32.923Z,4.82
2023-04-08T03:46:59.459Z,4.84
2023-04-08T03:49:25.998Z,4.84
2023-04-08T03:51:52.526Z,4.85
2023-04-08T03:54:19.085Z,4.85
2023-04-08T03:56:45.676Z,4.87
2023-04-08T03:59:12.212Z,4.89
2023-04-08T04:01:40.589Z,4.89
2023-04-08T04:04:08.618Z,4.87
2023-04-08T04:06:35.328Z,4.85
2023-04-08T04:09:01.863Z,4.84
2023-04-08T04:11:28.419Z,4.84
2023-04-08T04:13:54.960Z,4.84
2023-04-08T04:16:21.697Z,4.84
2023-04-08T04:18:48.591Z,4.83
2023-04-08T04:21:15.325Z,4.82
2023-04-08T04:23:41.823Z,4.79
2023-04-08T04:26:10.101Z,4.79
2023-04-08T04:28:37.150Z,4.79
2023-04-08T04:31:04.116Z,4.79
2023-04-08T04:33:31.357Z,4.77
2023-04-08T04:35:58.022Z,4.77
2023-04-08T04:38:24.720Z,4.77
2023-04-08T04:40:51.276Z,4.77
2023-04-08T04:43:17.807Z,4.78
2023-04-08T04:45:45.167Z,4.80
2023-04-08T04:48:11.850Z,4.81
2023-04-08T04:50:38.374Z,4.80
2023-04-08T04:53:04.988Z,4.82
2023-04-08T04:55:31.560Z,4.95
2023-04-08T04:57:58.067Z,5.61
2023-04-08T05:00:24.632Z,6.23
2023-04-08T05:02:51.723Z,6.81
2023-04-08T05:05:18.585Z,6.83
2023-04-08T05:07:45.146Z,6.71
2023-04-08T05:10:11.759Z,6.49
2023-04-08T05:12:38.898Z,6.29
2023-04-08T05:15:06.715Z,6.21
2023-04-08T05:17:33.343Z,6.08
2023-04-08T05:19:59.911Z,5.93
2023-04-08T05:22:26.504Z,5.80
2023-04-08T05:24:53.013Z,5.68
2023-04-08T05:27:19.681Z,5.67
2023-04-08T05:29:46.221Z,5.91
2023-04-08T05:32:12.882Z,5.96
2023-04-08T05:34:39.472Z,5.90
2023-04-08T05:37:06.055Z,5.82
2023-04-08T05:39:32.577Z,5.80
2023-04-08T05:41:59.115Z,5.88
2023-04-08T05:44:25.729Z,5.90
2023-04-08T05:46:52.450Z,6.20
2023-04-08T05:49:19.237Z,6.54
2023-04-08T05:51:45.820Z,6.50
2023-04-08T05:54:12.392Z,6.36
2023-04-08T05:56:38.928Z,6.20
2023-04-08T05:59:05.522Z,6.09
2023-04-08T06:01:32.190Z,6.04
2023-04-08T06:03:58.964Z,6.02
2023-04-08T06:06:26.090Z,6.01
2023-04-08T06:08:52.976Z,6.02
2023-04-08T06:11:19.641Z,6.03
2023-04-08T06:13:46.238Z,6.02
2023-04-08T06:16:13.824Z,6.04
2023-04-08T06:18:41.038Z,6.05
2023-04-08T06:21:07.788Z,6.08
2023-04-08T06:23:34.406Z,6.13
2023-04-08T06:26:00.958Z,6.20
2023-04-08T06:28:29.545Z,6.29
2023-04-08T06:30:56.213Z,6.40
2023-04-08T06:33:22.863Z,6.51
2023-04-08T06:35:49.420Z,6.66
2023-04-08T06:38:16.295Z,6.78
2023-04-08T06:40:42.840Z,6.92
2023-04-08T06:43:09.390Z,7.10
2023-04-08T06:45:36.099Z,7.29
2023-04-08T06:48:02.781Z,7.45
2023-04-08T06:50:29.379Z,7.62
2023-04-08T06:52:55.925Z,7.74
2023-04-08T06:55:22.466Z,7.89
2023-04-08T06:57:48.979Z,8.01
2023-04-08T07:00:15.848Z,8.14
2023-04-08T07:02:42.586Z,8.26
2023-04-08T07:05:09.599Z,8.34
2023-04-08T07:07:36.465Z,8.41
2023-04-08T07:10:03.060Z,8.47
2023-04-08T07:12:29.693Z,8.52
2023-04-08T07:14:56.253Z,8.58
2023-04-08T07:17:22.809Z,8.63
2023-04-08T07:19:49.662Z,8.66
2023-04-08T07:22:16.423Z,8.71
2023-04-08T07:24:45.719Z,8.73
2023-04-08T07:27:12.266Z,8.72
2023-04-08T07:29:39.952Z,8.77
2023-04-08T07:32:07.183Z,8.80
2023-04-08T07:34:36.986Z,8.83
2023-04-08T07:37:03.615Z,8.85
2023-04-08T07:39:30.595Z,8.86
2023-04-08T07:41:57.309Z,8.93
2023-04-08T07:44:23.917Z,8.99
2023-04-08T07:46:51.887Z,9.03
2023-04-08T07:49:18.662Z,9.08
2023-04-08T07:51:45.294Z,9.09
2023-04-08T07:54:12.644Z,9.12
2023-04-08T07:56:40.443Z,9.19
2023-04-08T07:59:07.162Z,9.29
2023-04-08T08:01:35.811Z,9.36
2023-04-08T08:04:03.523Z,9.48
2023-04-08T08:06:32.518Z,9.58
2023-04-08T08:08:59.790Z,9.67
2023-04-08T08:11:29.415Z,9.76
2023-04-08T08:13:56.001Z,9.84
2023-04-08T08:16:22.958Z,9.95
2023-04-08T08:18:49.543Z,10.12
2023-04-08T08:21:16.160Z,10.25
2023-04-08T08:23:42.765Z,10.38
2023-04-08T08:26:10.562Z,10.51
2023-04-08T08:28:38.032Z,10.68
2023-04-08T08:31:06.110Z,10.78
2023-04-08T08:33:33.413Z,10.84
2023-04-08T08:36:00.293Z,10.95
2023-04-08T08:38:27.227Z,11.06
2023-04-08T08:40:58.089Z,11.16
2023-04-08T08:43:25.108Z,11.27
2023-04-08T08:45:51.842Z,11.44
2023-04-08T08:48:18.614Z,11.58
2023-04-08T08:50:45.788Z,11.74
2023-04-08T08:53:12.927Z,11.91
2023-04-08T08:56:05.674Z,12.04
2023-04-08T08:58:29.580Z,12.25
2023-04-08T09:00:56.191Z,12.40
2023-04-08T09:03:30.231Z,12.43
2023-04-08T09:06:01.716Z,12.55
2023-04-08T09:08:33.166Z,12.65
2023-04-08T09:11:13.131Z,12.66
2023-04-08T09:13:40.465Z,12.76
2023-04-08T09:16:09.329Z,12.82
2023-04-08T09:18:39.289Z,12.75
2023-04-08T09:21:07.251Z,12.67
2023-04-08T09:23:41.499Z,12.54
2023-04-08T09:26:16.341Z,12.62
2023-04-08T09:28:45.178Z,12.76
2023-04-08T09:31:23.125Z,12.87
2023-04-08T09:33:51.581Z,12.97
2023-04-08T09:36:19.060Z,13.00
2023-04-08T09:38:46.894Z,13.01
2023-04-08T09:41:18.245Z,13.11
2023-04-08T09:43:51.799Z,13.13
2023-04-08T09:46:25.913Z,13.10
2023-04-08T09:49:08.707Z,13.12
2023-04-08T09:52:03.319Z,13.18
2023-04-08T09:54:57.969Z,13.22
2023-04-08T09:57:58.560Z,13.19
2023-04-08T10:00:51.486Z,13.28
2023-04-08T10:03:27.935Z,13.42
2023-04-08T10:05:56.660Z,13.60
2023-04-08T10:08:27.097Z,13.81
2023-04-08T10:10:55.121Z,13.99
2023-04-08T10:13:22.732Z,14.15
2023-04-08T10:15:49.318Z,14.37
2023-04-08T10:18:18.605Z,14.46
2023-04-08T10:20:49.289Z,14.60
2023-04-08T10:23:17.849Z,14.80
2023-04-08T10:25:46.001Z,15.08
2023-04-08T10:28:16.236Z,15.29
2023-04-08T10:30:47.298Z,15.12
2023-04-08T10:33:20.552Z,14.87
2023-04-08T10:35:54.207Z,14.70
2023-04-08T10:38:21.017Z,14.61
2023-04-08T10:40:49.061Z,14.42
2023-04-08T10:43:16.163Z,14.29
2023-04-08T10:45:45.760Z,14.34
2023-04-08T10:48:13.739Z,14.59
2023-04-08T10:50:41.033Z,14.91
2023-04-08T10:53:08.644Z,15.01
2023-04-08T10:55:35.519Z,15.00
2023-04-08T10:58:12.774Z,14.92
2023-04-08T11:00:40.283Z,14.83
2023-04-08T11:03:09.439Z,14.79
2023-04-08T11:05:37.375Z,14.70
2023-04-08T11:08:04.930Z,14.59
2023-04-08T11:10:36.660Z,14.49
2023-04-08T11:13:03.620Z,14.46
2023-04-08T11:15:31.226Z,14.55
2023-04-08T11:17:58.126Z,14.73
2023-04-08T11:20:25.476Z,14.62
2023-04-08T11:22:52.161Z,14.44
2023-04-08T11:25:18.852Z,14.33
2023-04-08T11:27:45.491Z,14.29
2023-04-08T11:30:12.495Z,14.40
2023-04-08T11:32:39.983Z,14.41
2023-04-08T11:35:07.523Z,14.32
2023-04-08T11:37:41.408Z,14.38
2023-04-08T11:40:09.759Z,14.64
2023-04-08T11:42:36.367Z,14.85
2023-04-08T11:45:11.120Z,14.98
2023-04-08T11:47:38.118Z,15.08
2023-04-08T11:50:05.477Z,15.05
2023-04-08T11:53:01.422Z,14.90
2023-04-08T11:55:31.503Z,14.81
2023-04-08T11:58:03.393Z,14.70
2023-04-08T12:00:29.960Z,14.70
2023-04-08T12:02:56.657Z,14.67
2023-04-08T12:05:23.317Z,14.86
2023-04-08T12:07:49.947Z,15.16
2023-04-08T12:10:16.594Z,15.24
2023-04-08T12:12:43.122Z,15.22
2023-04-08T12:15:10.810Z,15.39
2023-04-08T12:17:38.913Z,15.54
2023-04-08T12:20:06.927Z,15.66
2023-04-08T12:22:33.809Z,15.69
2023-04-08T12:25:00.639Z,15.74
2023-04-08T12:27:27.173Z,15.90
2023-04-08T12:29:53.686Z,16.13
2023-04-08T12:32:20.573Z,16.23
2023-04-08T12:34:47.512Z,16.38
2023-04-08T12:37:14.011Z,16.47
2023-04-08T12:39:40.595Z,16.63
2023-04-08T12:42:07.183Z,16.87
2023-04-08T12:44:33.748Z,17.19
2023-04-08T12:47:00.447Z,17.31
2023-04-08T12:49:28.049Z,17.20
2023-04-08T12:51:55.224Z,17.04
2023-04-08T12:54:21.812Z,16.97
2023-04-08T12:56:48.893Z,17.09
2023-04-08T12:59:16.037Z,17.17
2023-04-08T13:01:42.980Z,16.94
2023-04-08T13:04:09.647Z,16.91
2023-04-08T13:06:36.273Z,16.76
2023-04-08T13:09:02.825Z,16.53
2023-04-08T13:11:29.408Z,16.38
2023-04-08T13:13:56.192Z,16.49
2023-04-08T13:16:22.909Z,16.69
2023-04-08T13:18:49.805Z,17.01
2023-04-08T13:21:16.662Z,17.39
2023-04-08T13:23:43.186Z,17.84
2023-04-08T13:26:09.817Z,18.18
2023-04-08T13:28:49.714Z,18.11
2023-04-08T13:31:20.703Z,17.82
2023-04-08T13:33:47.363Z,17.44
2023-04-08T13:36:13.932Z,17.36
2023-04-08T13:38:40.953Z,17.59
2023-04-08T13:41:07.542Z,18.01
2023-04-08T13:43:34.129Z,18.38
2023-04-08T13:46:00.659Z,18.69
2023-04-08T13:48:27.217Z,18.85
2023-04-08T13:50:53.756Z,18.81
2023-04-08T13:53:20.267Z,18.42
2023-04-08T13:55:46.931Z,18.15
2023-04-08T13:58:22.915Z,18.16
2023-04-08T14:00:51.861Z,18.24
2023-04-08T14:03:19.318Z,18.23
2023-04-08T14:05:46.117Z,18.21
2023-04-08T14:08:13.745Z,18.23
2023-04-08T14:10:42.065Z,18.23
2023-04-08T14:13:09.400Z,18.11
2023-04-08T14:15:36.296Z,18.05
2023-04-08T14:18:02.979Z,18.09
2023-04-08T14:20:30.038Z,18.06
2023-04-08T14:22:56.931Z,18.06
2023-04-08T14:25:24.013Z,18.22
2023-04-08T14:27:57.826Z,18.23
2023-04-08T14:30:25.772Z,18.20
2023-04-08T14:32:52.763Z,18.15
2023-04-08T14:35:19.341Z,18.06
2023-04-08T14:37:45.944Z,18.03
2023-04-08T14:40:12.738Z,17.97
2023-04-08T14:42:39.284Z,17.86
2023-04-08T14:45:06.288Z,17.73
2023-04-08T14:47:32.904Z,17.73
2023-04-08T14:49:59.545Z,18.18
2023-04-08T14:52:26.228Z,19.51
2023-04-08T14:54:53.772Z,20.78
2023-04-08T14:58:21.186Z,22.27
2023-04-08T15:00:47.869Z,22.96
2023-04-08T15:03:14.944Z,23.40
2023-04-08T15:05:42.808Z,24.04
2023-04-08T15:08:09.376Z,23.90
2023-04-08T15:10:36.006Z,24.24
2023-04-08T15:13:02.925Z,24.80
2023-04-08T15:15:29.554Z,25.22
2023-04-08T15:17:56.182Z,24.98
2023-04-08T15:20:22.813Z,24.75
2023-04-08T15:22:49.471Z,23.79
2023-04-08T15:25:16.211Z,22.75
2023-04-08T15:27:43.248Z,21.70
2023-04-08T15:30:12.374Z,20.78
2023-04-08T15:32:39.178Z,20.02
2023-04-08T15:35:06.764Z,19.57
2023-04-08T15:37:33.542Z,19.21
2023-04-08T15:40:00.369Z,18.88
2023-04-08T15:42:27.197Z,18.74
2023-04-08T15:44:53.752Z,18.59
2023-04-08T15:47:20.340Z,18.33
2023-04-08T15:49:48.804Z,17.99
2023-04-08T15:52:15.490Z,17.73
2023-04-08T15:54:41.995Z,17.64
2023-04-08T15:57:08.744Z,17.56
2023-04-08T15:59:35.903Z,17.46
2023-04-08T16:02:02.541Z,17.37
2023-04-08T16:04:29.768Z,17.29
2023-04-08T16:06:56.424Z,17.17
2023-04-08T16:09:26.636Z,17.10
2023-04-08T16:11:53.688Z,17.12
2023-04-08T16:14:20.211Z,17.12
2023-04-08T16:16:47.247Z,17.09
2023-04-08T16:19:14.340Z,17.07
2023-04-08T16:21:40.864Z,17.02
2023-04-08T16:24:07.621Z,16.92
2023-04-08T16:26:34.326Z,16.81
2023-04-08T16:29:00.984Z,16.77
2023-04-08T16:31:27.625Z,16.77
2023-04-08T16:33:54.517Z,16.71
2023-04-08T16:36:21.477Z,16.64
2023-04-08T16:38:48.010Z,16.64
2023-04-08T16:41:14.538Z,16.62
2023-04-08T16:43:41.500Z,16.44
2023-04-08T16:46:17.597Z,16.40
2023-04-08T16:48:45.033Z,16.44
2023-04-08T16:51:11.737Z,16.54
2023-04-08T16:53:38.286Z,16.57
2023-04-08T16:56:05.703Z,16.52
2023-04-08T16:58:32.524Z,16.43
2023-04-08T17:00:59.088Z,16.29
2023-04-08T17:03:27.495Z,16.13
2023-04-08T17:05:54.162Z,16.08
2023-04-08T17:08:21.422Z,16.02
2023-04-08T17:10:49.659Z,15.94
2023-04-08T17:13:16.451Z,15.91
2023-04-08T17:15:43.126Z,15.86
2023-04-08T17:18:09.693Z,15.78
2023-04-08T17:20:36.290Z,15.68
2023-04-08T17:23:02.976Z,15.59
2023-04-08T17:25:29.536Z,15.51
2023-04-08T17:27:56.702Z,15.48
2023-04-08T17:30:23.323Z,15.45
2023-04-08T17:32:49.944Z,15.40
2023-04-08T17:35:17.302Z,15.35
2023-04-08T17:37:43.826Z,15.33
2023-04-08T17:40:10.492Z,15.29
2023-04-08T17:42:37.036Z,15.23
2023-04-08T17:45:04.857Z,15.20
2023-04-08T17:47:31.550Z,15.17
2023-04-08T17:49:58.095Z,15.13
2023-04-08T17:52:24.674Z,15.08
2023-04-08T17:54:51.191Z,15.03
2023-04-08T17:57:17.773Z,14.99
2023-04-08T17:59:44.372Z,14.95
2023-04-08T18:02:11.094Z,14.94
2023-04-08T18:04:38.233Z,14.89
2023-04-08T18:07:05.394Z,14.82
2023-04-08T18:09:32.032Z,14.80
2023-04-08T18:11:58.689Z,14.74
2023-04-08T18:14:25.301Z,14.69
2023-04-08T18:16:51.854Z,14.66
2023-04-08T18:19:18.847Z,14.61
2023-04-08T18:21:45.463Z,14.56
2023-04-08T18:24:11.969Z,14.51
2023-04-08T18:26:38.527Z,14.48
2023-04-08T18:29:05.038Z,14.45
2023-04-08T18:31:31.547Z,14.43
2023-04-08T18:33:58.158Z,14.43
2023-04-08T18:36:24.734Z,14.40
2023-04-08T18:38:51.355Z,14.33
2023-04-08T18:41:18.723Z,14.33
2023-04-08T18:43:45.371Z,14.28
2023-04-08T18:46:11.936Z,14.31
2023-04-08T18:48:38.502Z,14.28
2023-04-08T18:51:05.036Z,14.22
2023-04-08T18:53:31.779Z,14.17
2023-04-08T18:55:58.428Z,14.14
2023-04-08T18:58:25.077Z,14.09
2023-04-08T19:00:51.592Z,14.06
2023-04-08T19:03:18.249Z,14.01
2023-04-08T19:05:44.844Z,13.98
2023-04-08T19:08:11.472Z,13.95
2023-04-08T19:10:38.529Z,13.90
2023-04-08T19:13:05.301Z,13.83
2023-04-08T19:15:31.957Z,13.78
2023-04-08T19:17:59.134Z,13.73
2023-04-08T19:20:27.234Z,13.68
2023-04-08T19:22:53.868Z,13.63
2023-04-08T19:25:20.552Z,13.57
2023-04-08T19:27:47.747Z,13.53
2023-04-08T19:30:14.500Z,13.45
2023-04-08T19:32:41.157Z,13.40
2023-04-08T19:35:11.218Z,13.37
2023-04-08T19:37:37.777Z,13.34
2023-04-08T19:40:04.785Z,13.32
2023-04-08T19:42:31.315Z,13.32
2023-04-08T19:44:57.818Z,13.30
2023-04-08T19:47:24.368Z,13.28
2023-04-08T19:49:51.095Z,13.30
2023-04-08T19:52:17.614Z,13.31
2023-04-08T19:54:44.228Z,13.31
2023-04-08T19:57:11.025Z,13.29
2023-04-08T19:59:38.190Z,13.26
2023-04-08T20:02:05.075Z,13.24
2023-04-08T20:04:32.210Z,13.22
2023-04-08T20:07:02.490Z,13.17
2023-04-08T20:09:32.686Z,13.12
2023-04-08T20:12:06.424Z,13.08
2023-04-08T20:14:35.821Z,13.07
2023-04-08T20:17:02.739Z,13.05
2023-04-08T20:19:29.354Z,13.04
2023-04-08T20:21:57.375Z,13.02
2023-04-08T20:24:23.986Z,13.01
2023-04-08T20:26:50.531Z,12.99
2023-04-08T20:29:17.152Z,12.92
2023-04-08T20:31:44.884Z,12.88
2023-04-08T20:34:11.566Z,12.84
2023-04-08T20:36:38.781Z,12.79
2023-04-08T20:39:05.592Z,12.75
2023-04-08T20:41:32.123Z,12.71
2023-04-08T20:43:58.678Z,12.71
2023-04-08T20:46:25.205Z,12.68
2023-04-08T20:48:52.101Z,12.64
2023-04-08T20:51:19.187Z,12.58
2023-04-08T20:53:45.745Z,12.53
2023-04-08T20:56:12.282Z,12.48
2023-04-08T20:58:38.847Z,12.42
2023-04-08T21:01:05.994Z,12.33
2023-04-08T21:03:32.822Z,12.26
2023-04-08T21:05:59.440Z,12.19
2023-04-08T21:08:26.097Z,12.16
2023-04-08T21:10:54.284Z,12.13
2023-04-08T21:13:21.143Z,12.11
2023-04-08T21:15:47.676Z,12.07
2023-04-08T21:18:14.218Z,12.04
2023-04-08T21:20:41.114Z,12.00
2023-04-08T21:23:07.810Z,11.95
2023-04-08T21:25:34.494Z,11.90
2023-04-08T21:28:01.120Z,11.84
2023-04-08T21:30:27.770Z,11.80
2023-04-08T21:32:54.919Z,11.75
2023-04-08T21:35:21.641Z,11.72
2023-04-08T21:37:48.242Z,11.67
2023-04-08T21:40:14.853Z,11.61
2023-04-08T21:42:41.951Z,11.54
2023-04-08T21:45:09.192Z,11.50
2023-04-08T21:47:35.803Z,11.45
2023-04-08T21:50:02.402Z,11.40
2023-04-08T21:52:29.642Z,11.37
2023-04-08T21:54:56.132Z,11.35
2023-04-08T21:57:22.809Z,11.34
2023-04-08T21:59:49.421Z,11.32
2023-04-08T22:02:16.387Z,11.28
2023-04-08T22:04:43.112Z,11.24
2023-04-08T22:07:09.656Z,11.24
2023-04-08T22:09:36.457Z,11.20
2023-04-08T22:12:03.305Z,11.17
2023-04-08T22:14:29.992Z,11.14
2023-04-08T22:16:56.675Z,11.12
2023-04-08T22:19:23.433Z,11.09
2023-04-08T22:21:51.205Z,11.09
2023-04-08T22:24:19.064Z,11.08
2023-04-08T22:26:45.661Z,11.08
2023-04-08T22:29:12.248Z,11.06
2023-04-08T22:31:38.830Z,11.07
2023-04-08T22:34:05.571Z,11.04
2023-04-08T22:36:32.129Z,11.02
2023-04-08T22:38:58.685Z,10.99
2023-04-08T22:41:25.625Z,10.96
2023-04-08T22:43:52.110Z,10.95
2023-04-08T22:46:20.061Z,10.97
2023-04-08T22:48:47.701Z,10.99
2023-04-08T22:51:14.308Z,11.00
2023-04-08T22:53:41.113Z,10.99
2023-04-08T22:56:07.754Z,10.96
2023-04-08T22:58:34.481Z,10.96
2023-04-08T23:01:02.422Z,10.97
2023-04-08T23:03:29.006Z,10.96
2023-04-08T23:05:55.534Z,10.96
2023-04-08T23:08:22.128Z,10.93
2023-04-08T23:10:48.768Z,10.91
2023-04-08T23:13:15.430Z,10.92
2023-04-08T23:15:41.985Z,10.93
2023-04-08T23:18:08.616Z,10.94
2023-04-08T23:20:35.855Z,10.95
2023-04-08T23:23:03.571Z,10.94
2023-04-08T23:25:30.309Z,10.91
2023-04-08T23:27:56.839Z,10.85
2023-04-08T23:30:23.427Z,10.83
2023-04-08T23:32:50.079Z,10.78
2023-04-08T23:35:16.669Z,10.74
2023-04-08T23:37:43.396Z,10.67
2023-04-08T23:40:10.235Z,10.64
2023-04-08T23:42:36.860Z,10.61
2023-04-08T23:45:03.841Z,10.59
2023-04-08T23:47:31.241Z,10.56
2023-04-08T23:49:57.853Z,10.52
2023-04-08T23:52:24.360Z,10.48
2023-04-08T23:54:50.933Z,10.43
2023-04-08T23:57:17.575Z,10.38
2023-04-08T23:59:44.154Z,10.31
